Time;durP1;ratioP1;P1;durP2;ratioP2;P2;SDS_P1;SDS_P2;PMS_P1;PMS_P2;Temp;Humidity;BMP_temperature;BMP_pressure;BME280_temperature;BME280_humidity;BME280_pressure;Samples;Min_cycle;Max_cycle;Signal;HPM_P1;HPM_P2
2022/03/18 00:00:38;;;;;;;23.87;10.20;;;;;;;3.20;73.25;103819.75;5038357;28;20093;-56
2022/03/18 00:03:03;;;;;;;19.90;9.80;;;;;;;3.03;73.39;103814.94;5024883;28;20033;-57
2022/03/18 00:05:29;;;;;;;17.37;8.47;;;;;;;2.92;74.07;103819.56;5035717;28;20039;-55
2022/03/18 00:07:54;;;;;;;19.73;8.00;;;;;;;2.79;74.05;103817.25;5041175;28;20029;-55
2022/03/18 00:10:20;;;;;;;14.50;6.43;;;;;;;2.68;73.68;103830.59;5030627;28;20056;-56
2022/03/18 00:12:47;;;;;;;15.37;5.93;;;;;;;2.58;74.37;103833.47;5026027;28;20457;-54
2022/03/18 00:15:13;;;;;;;13.13;5.50;;;;;;;2.23;75.48;103833.34;5030678;28;20033;-55
2022/03/18 00:17:39;;;;;;;14.57;5.67;;;;;;;2.08;76.64;103840.59;5030104;28;20034;-56
2022/03/18 00:20:07;;;;;;;13.77;5.80;;;;;;;2.09;76.58;103841.47;5022564;28;20084;-56
2022/03/18 00:22:33;;;;;;;15.80;6.10;;;;;;;2.00;75.75;103832.06;5033259;28;20030;-57
2022/03/18 00:24:58;;;;;;;15.70;6.07;;;;;;;2.15;75.74;103836.09;5032990;28;20074;-55
2022/03/18 00:27:26;;;;;;;15.47;6.07;;;;;;;2.12;76.20;103837.03;5025906;28;20104;-56
2022/03/18 00:29:52;;;;;;;17.73;6.30;;;;;;;2.15;75.73;103826.50;5031603;28;20037;-56
2022/03/18 00:32:17;;;;;;;15.83;6.60;;;;;;;2.19;75.51;103826.44;5032926;28;20535;-54
2022/03/18 00:34:42;;;;;;;13.33;6.23;;;;;;;2.23;74.95;103825.47;5027723;28;20171;-57
2022/03/18 00:37:08;;;;;;;15.70;6.53;;;;;;;2.28;74.90;103832.34;5025633;28;20036;-57
2022/03/18 00:39:34;;;;;;;18.60;6.70;;;;;;;2.29;75.05;103834.06;5028772;28;20151;-56
2022/03/18 00:42:00;;;;;;;17.17;7.00;;;;;;;2.36;74.92;103833.94;5025877;28;20553;-56
2022/03/18 00:44:25;;;;;;;16.40;7.40;;;;;;;2.36;74.98;103831.34;5037312;28;20029;-55
2022/03/18 00:46:53;;;;;;;17.07;6.73;;;;;;;2.27;74.36;103835.00;5030150;28;20036;-56
2022/03/18 00:52:17;;;;;;;14.37;6.77;;;;;;;2.37;75.53;103846.16;5005196;28;20096;-56
2022/03/18 00:54:43;;;;;;;11.83;6.00;;;;;;;2.21;75.00;103856.09;5029880;28;20432;-57
2022/03/18 00:57:09;;;;;;;16.33;6.80;;;;;;;2.05;75.29;103865.97;5027057;28;20160;-56
2022/03/18 00:59:35;;;;;;;19.47;7.53;;;;;;;1.94;75.29;103860.97;5030277;28;20041;-57
2022/03/18 01:02:00;;;;;;;24.70;7.03;;;;;;;1.84;75.47;103860.28;5025871;28;20073;-56
2022/03/18 01:04:28;;;;;;;26.37;7.13;;;;;;;1.73;75.16;103871.81;5026829;28;20075;-56
2022/03/18 01:06:54;;;;;;;22.77;7.10;;;;;;;1.57;75.34;103865.13;5030421;28;20028;-54
2022/03/18 01:09:20;;;;;;;21.53;6.57;;;;;;;1.47;75.74;103872.25;5025355;28;20049;-56
2022/03/18 01:11:46;;;;;;;20.93;7.10;;;;;;;1.43;76.26;103879.31;5033901;28;20036;-56
2022/03/18 01:14:12;;;;;;;28.37;7.40;;;;;;;1.37;76.74;103874.19;5036200;28;20040;-56
2022/03/18 01:16:37;;;;;;;30.80;7.13;;;;;;;1.39;76.38;103875.03;5032589;28;20052;-55
2022/03/18 01:19:02;;;;;;;23.77;7.50;;;;;;;1.45;76.58;103874.94;5028048;28;20068;-57
2022/03/18 01:21:28;;;;;;;42.53;8.07;;;;;;;1.52;76.55;103877.44;5030476;28;20517;-55
2022/03/18 01:23:53;;;;;;;18.80;6.73;;;;;;;1.61;76.24;103877.25;5029650;28;21758;-56
2022/03/18 01:26:18;;;;;;;23.83;7.87;;;;;;;1.64;76.09;103879.84;5031366;28;20045;-53
2022/03/18 01:28:44;;;;;;;27.87;8.40;;;;;;;1.60;76.10;103871.19;5037327;28;20040;-55
2022/03/18 01:31:09;;;;;;;24.17;7.80;;;;;;;1.60;76.15;103870.31;5035940;28;20033;-56
2022/03/18 01:33:36;;;;;;;28.33;8.63;;;;;;;1.57;76.37;103862.50;5031069;28;20763;-56
2022/03/18 01:36:01;;;;;;;25.17;7.50;;;;;;;1.51;76.01;103866.09;5027073;28;20021;-55
2022/03/18 01:38:26;;;;;;;26.13;7.67;;;;;;;1.51;76.05;103865.22;5037137;28;20400;-54
2022/03/18 01:40:52;;;;;;;33.13;8.20;;;;;;;1.51;76.19;103871.34;5028063;28;20036;-56
2022/03/18 01:43:17;;;;;;;26.10;8.20;;;;;;;1.54;76.15;103867.81;5028706;28;20041;-55
2022/03/18 01:45:42;;;;;;;21.47;7.83;;;;;;;1.48;76.13;103877.47;5028931;28;20442;-56
2022/03/18 01:48:08;;;;;;;25.27;7.90;;;;;;;1.48;75.94;103872.25;5032423;28;20038;-56
2022/03/18 01:50:33;;;;;;;20.93;7.13;;;;;;;1.57;75.96;103875.56;5028388;28;20095;-55
2022/03/18 01:52:59;;;;;;;20.07;7.70;;;;;;;1.51;76.29;103875.69;5024598;28;20430;-56
2022/03/18 01:55:25;;;;;;;22.93;7.57;;;;;;;1.49;76.19;103878.34;5033272;28;20469;-56
2022/03/18 01:57:51;;;;;;;17.60;7.20;;;;;;;1.50;76.02;103873.97;5034622;28;20039;-56
2022/03/18 02:00:19;;;;;;;14.43;6.93;;;;;;;1.46;75.89;103874.03;5030204;28;20116;-56
2022/03/18 02:02:45;;;;;;;18.10;7.37;;;;;;;1.48;76.16;103869.63;5027536;28;20025;-55
2022/03/18 02:05:11;;;;;;;22.80;6.90;;;;;;;1.53;76.05;103872.16;5030605;28;20074;-56
2022/03/18 02:07:36;;;;;;;19.77;7.47;;;;;;;1.47;75.86;103875.75;5032486;28;20101;-56
2022/03/18 02:10:02;;;;;;;20.33;7.30;;;;;;;1.48;75.85;103882.72;5039665;28;20194;-56
2022/03/18 02:12:27;;;;;;;20.83;7.23;;;;;;;1.41;75.88;103890.69;5030169;28;20030;-53
2022/03/18 02:14:52;;;;;;;14.97;7.20;;;;;;;1.42;76.53;103888.03;5033532;28;20455;-56
2022/03/18 02:17:18;;;;;;;20.13;6.87;;;;;;;1.37;76.26;103886.41;5035409;28;20030;-57
2022/03/18 02:19:46;;;;;;;29.50;6.60;;;;;;;1.18;76.12;103894.53;5030165;28;20028;-56
2022/03/18 02:22:22;;;;;;;19.23;7.00;;;;;;;0.98;76.75;103882.63;5023705;28;20038;-56
2022/03/18 02:24:50;;;;;;;21.40;7.23;;;;;;;0.99;77.30;103894.81;5023458;28;20034;-55
2022/03/18 02:27:15;;;;;;;21.27;7.33;;;;;;;1.01;77.18;103892.16;5031634;28;20043;-56
2022/03/18 02:29:42;;;;;;;22.70;7.30;;;;;;;1.04;77.12;103892.13;5023065;28;20041;-56
2022/03/18 02:32:08;;;;;;;17.23;6.90;;;;;;;1.03;77.04;103882.56;5025723;28;20162;-56
2022/03/18 02:34:35;;;;;;;20.67;7.20;;;;;;;1.05;77.33;103878.19;5022210;28;20029;-53
2022/03/18 02:37:01;;;;;;;22.30;7.40;;;;;;;1.06;77.07;103890.34;5026263;28;20025;-57
2022/03/18 02:39:26;;;;;;;18.20;7.50;;;;;;;0.97;76.93;103906.16;5030494;28;20385;-55
2022/03/18 02:41:52;;;;;;;16.50;7.40;;;;;;;1.12;77.20;103900.72;5025303;28;20045;-56
2022/03/18 02:44:17;;;;;;;20.20;7.73;;;;;;;1.05;77.12;103904.31;5023137;28;20032;-55
2022/03/18 02:46:42;;;;;;;20.30;7.07;;;;;;;1.06;76.84;103911.25;5025292;28;20040;-55
2022/03/18 02:49:08;;;;;;;21.53;7.17;;;;;;;1.02;76.48;103904.34;5032404;28;20434;-57
2022/03/18 02:51:37;;;;;;;19.13;7.20;;;;;;;1.00;77.04;103906.13;5031947;28;20038;-54
2022/03/18 02:54:03;;;;;;;14.23;6.53;;;;;;;0.96;76.97;103907.94;5032118;28;20036;-56
2022/03/18 02:56:28;;;;;;;18.23;7.40;;;;;;;0.98;76.81;103908.75;5042432;28;20464;-55
2022/03/18 02:58:53;;;;;;;14.43;7.10;;;;;;;0.94;76.98;103902.72;5033071;28;20345;-56
2022/03/18 03:01:19;;;;;;;16.40;7.50;;;;;;;0.86;77.20;103909.81;5021071;28;20041;-55
2022/03/18 03:03:44;;;;;;;17.07;7.10;;;;;;;0.79;77.84;103929.06;5025056;28;20034;-56
2022/03/18 03:08:53;;;;;;;15.73;6.97;;;;;;;0.80;77.60;103922.97;5030797;28;20056;-56
2022/03/18 03:11:21;;;;;;;19.40;7.17;;;;;;;0.84;77.51;103916.78;5034104;28;20025;-55
2022/03/18 03:13:46;;;;;;;18.77;7.23;;;;;;;0.91;77.67;103934.13;5031756;28;20033;-55
2022/03/18 03:16:11;;;;;;;18.50;7.00;;;;;;;0.88;77.79;103934.16;5036597;28;20269;-56
2022/03/18 03:18:37;;;;;;;17.47;6.70;;;;;;;0.82;77.07;103929.03;5034544;28;20029;-55
2022/03/18 03:21:02;;;;;;;14.53;6.27;;;;;;;0.78;77.82;103938.66;5028779;28;20498;-56
2022/03/18 03:23:27;;;;;;;15.37;6.63;;;;;;;0.75;77.86;103937.84;5033443;28;20055;-56
2022/03/18 03:25:54;;;;;;;15.83;6.70;;;;;;;0.72;78.04;103930.91;5033566;28;20091;-56
2022/03/18 03:28:19;;;;;;;17.07;7.10;;;;;;;0.74;78.51;103941.34;5030863;28;20108;-56
2022/03/18 03:30:45;;;;;;;14.97;7.17;;;;;;;0.73;79.18;103944.84;5027538;28;20116;-55
2022/03/18 03:33:11;;;;;;;22.30;6.63;;;;;;;0.65;78.92;103948.38;5032857;28;20041;-55
2022/03/18 03:35:37;;;;;;;15.90;7.23;;;;;;;0.65;78.81;103942.31;5030169;28;20025;-57
2022/03/18 03:38:03;;;;;;;21.73;7.17;;;;;;;0.55;78.45;103936.34;5029993;28;20037;-56
2022/03/18 03:40:28;;;;;;;13.17;6.60;;;;;;;0.61;78.70;103941.50;5031539;28;20041;-55
2022/03/18 03:42:54;;;;;;;15.23;6.73;;;;;;;0.55;79.12;103938.94;5024708;28;20025;-55
2022/03/18 03:45:19;;;;;;;13.63;6.53;;;;;;;0.45;79.33;103960.81;5025773;28;20419;-56
2022/03/18 03:47:44;;;;;;;17.93;7.20;;;;;;;0.47;79.87;103959.94;5030450;28;20032;-56
2022/03/18 03:50:10;;;;;;;18.00;7.20;;;;;;;0.45;79.74;103964.28;5035117;28;20064;-56
2022/03/18 03:52:37;;;;;;;17.23;7.07;;;;;;;0.40;79.66;103966.13;5023779;28;20499;-56
2022/03/18 03:55:03;;;;;;;23.73;7.50;;;;;;;0.42;79.92;103966.94;5032179;28;20045;-56
2022/03/18 03:57:29;;;;;;;19.40;7.40;;;;;;;0.39;79.55;103959.13;5026573;28;20511;-56
2022/03/18 03:59:54;;;;;;;20.93;7.17;;;;;;;0.48;79.21;103972.09;5031333;28;20041;-56
2022/03/18 04:02:22;;;;;;;14.97;6.90;;;;;;;0.52;79.60;103972.94;5031693;28;21983;-55
2022/03/18 04:04:48;;;;;;;14.73;7.00;;;;;;;0.56;79.69;103974.63;5026921;28;20467;-54
2022/03/18 04:07:14;;;;;;;23.13;7.70;;;;;;;0.52;79.51;103984.25;5030894;28;20607;-55
2022/03/18 04:09:39;;;;;;;15.50;7.00;;;;;;;0.47;80.04;103979.94;5034104;28;20096;-55
2022/03/18 04:12:05;;;;;;;16.40;7.13;;;;;;;0.36;79.18;103988.78;5034112;28;20041;-55
2022/03/18 04:14:30;;;;;;;17.87;7.00;;;;;;;0.27;78.97;103988.88;5034047;28;20030;-54
2022/03/18 04:16:55;;;;;;;17.87;7.50;;;;;;;0.20;79.43;103988.06;5033157;28;20033;-56
2022/03/18 04:19:20;;;;;;;15.63;6.30;;;;;;;0.11;79.26;103994.22;5034164;28;20034;-55
2022/03/18 04:21:46;;;;;;;14.17;6.73;;;;;;;0.06;79.74;103995.16;5033519;28;20496;-55
2022/03/18 04:24:11;;;;;;;15.83;6.60;;;;;;;0.03;80.31;103993.44;5042727;28;20068;-54
2022/03/18 04:26:36;;;;;;;13.60;6.90;;;;;;;0.02;79.78;104003.88;5023884;28;20112;-56
2022/03/18 04:29:02;;;;;;;15.17;6.70;;;;;;;0.00;79.86;104006.53;5027875;28;20038;-55
2022/03/18 04:31:27;;;;;;;19.50;7.43;;;;;;;-0.04;80.25;104008.28;5034169;28;20049;-55
2022/03/18 04:33:52;;;;;;;19.37;7.13;;;;;;;-0.02;80.47;104008.25;5019268;28;20042;-56
2022/03/18 04:36:17;;;;;;;16.90;6.77;;;;;;;0.04;80.48;104012.59;5030865;28;20028;-56
2022/03/18 04:38:43;;;;;;;17.07;6.90;;;;;;;0.06;80.03;104016.91;5018510;28;20437;-56
2022/03/18 04:41:08;;;;;;;13.47;6.93;;;;;;;-0.01;79.73;104010.00;5030134;28;20045;-56
2022/03/18 04:43:33;;;;;;;15.00;7.10;;;;;;;0.00;79.51;104032.63;5034864;28;20029;-56
2022/03/18 04:45:59;;;;;;;13.73;6.67;;;;;;;0.04;80.51;104013.44;5035392;28;20029;-55
2022/03/18 04:48:24;;;;;;;16.27;7.03;;;;;;;0.03;79.94;104016.94;5026449;28;20040;-56
2022/03/18 04:50:49;;;;;;;15.73;6.80;;;;;;;0.06;80.02;104011.69;5032957;28;20095;-56
2022/03/18 04:53:15;;;;;;;15.67;6.83;;;;;;;0.06;79.22;104011.69;5032598;28;20068;-56
2022/03/18 04:55:40;;;;;;;16.67;6.60;;;;;;;-0.01;78.77;104017.81;5050648;28;20457;-55
2022/03/18 04:58:05;;;;;;;14.33;6.90;;;;;;;0.00;79.98;104022.19;5042494;28;20034;-55
2022/03/18 05:00:31;;;;;;;16.47;7.07;;;;;;;0.07;80.69;104018.63;5030253;28;20072;-56
2022/03/18 05:02:57;;;;;;;16.67;7.33;;;;;;;0.07;80.37;104018.63;5021083;28;20403;-56
2022/03/18 05:05:22;;;;;;;17.20;7.23;;;;;;;0.02;79.64;104030.84;5028447;28;20437;-55
2022/03/18 05:07:49;;;;;;;15.50;7.30;;;;;;;0.04;79.69;104030.84;5032222;28;20030;-56
2022/03/18 05:10:15;;;;;;;17.47;7.50;;;;;;;0.00;80.40;104032.63;5033462;28;20045;-57
2022/03/18 05:12:40;;;;;;;17.30;7.80;;;;;;;0.01;80.29;104042.19;5031460;28;20116;-56
2022/03/18 05:15:08;;;;;;;17.23;7.90;;;;;;;0.02;80.10;104046.50;5032781;28;20037;-56
2022/03/18 05:17:33;;;;;;;17.17;7.50;;;;;;;-0.02;80.06;104044.78;5028628;28;20021;-54
2022/03/18 05:19:59;;;;;;;17.70;7.47;;;;;;;0.00;80.32;104048.28;5032940;28;20029;-56
2022/03/18 05:22:24;;;;;;;15.23;7.00;;;;;;;0.04;80.62;104043.91;5029917;28;20030;-56
2022/03/18 05:24:49;;;;;;;16.10;8.10;;;;;;;0.07;80.49;104055.19;5027701;28;20369;-55
2022/03/18 05:27:15;;;;;;;15.97;7.53;;;;;;;0.02;79.73;104061.28;5035158;28;20434;-57
2022/03/18 05:29:40;;;;;;;13.33;7.23;;;;;;;0.04;79.93;104055.19;5023105;28;20041;-57
2022/03/18 05:32:06;;;;;;;15.47;7.10;;;;;;;0.04;79.76;104057.78;5031115;28;20025;-53
2022/03/18 05:34:32;;;;;;;15.07;7.50;;;;;;;0.03;79.63;104058.69;5022626;28;20033;-56
2022/03/18 05:36:57;;;;;;;14.83;7.10;;;;;;;0.01;80.17;104060.44;5029346;28;20082;-56
2022/03/18 05:39:23;;;;;;;15.03;7.53;;;;;;;0.05;79.50;104061.28;5032329;28;20064;-57
2022/03/18 05:41:48;;;;;;;17.93;8.13;;;;;;;0.00;80.07;104058.72;5028245;28;20060;-57
2022/03/18 05:44:14;;;;;;;15.80;7.90;;;;;;;0.00;79.91;104069.16;5031490;28;20396;-55
2022/03/18 05:46:39;;;;;;;15.57;7.77;;;;;;;0.01;79.98;104056.97;5029268;28;20025;-56
2022/03/18 05:49:05;;;;;;;15.87;7.47;;;;;;;-0.06;80.18;104062.22;5030407;28;20372;-56
2022/03/18 05:51:31;;;;;;;18.17;8.13;;;;;;;0.02;80.44;104062.16;5019558;28;20076;-56
2022/03/18 05:53:56;;;;;;;14.40;7.87;;;;;;;0.04;80.10;104057.78;5040591;28;20429;-55
2022/03/18 05:59:07;;;;;;;16.93;8.90;;;;;;;0.05;80.62;104056.06;5030097;28;20036;-54
2022/03/18 06:01:37;;;;;;;23.90;9.63;;;;;;;0.02;81.67;104062.16;5027740;28;20399;-55
2022/03/18 06:04:06;;;;;;;23.63;9.97;;;;;;;0.11;81.55;104082.97;5023369;28;20534;-54
2022/03/18 06:06:32;;;;;;;20.70;10.00;;;;;;;0.14;81.62;104082.06;5025240;28;20029;-56
2022/03/18 06:11:53;;;;;;;22.63;9.73;;;;;;;0.18;81.97;104077.69;5024374;28;20064;-55
2022/03/18 06:14:21;;;;;;;26.23;10.10;;;;;;;0.18;81.46;104082.91;5020351;28;20034;-54
2022/03/18 06:16:49;;;;;;;19.10;9.50;;;;;;;0.20;81.25;104092.47;5022034;28;20025;-50
2022/03/18 06:19:19;;;;;;;20.60;9.67;;;;;;;0.21;80.61;104098.56;5026967;28;22045;-56
2022/03/18 06:21:44;;;;;;;21.73;9.67;;;;;;;0.28;81.00;104100.22;5028873;28;20116;-54
2022/03/18 06:24:11;;;;;;;21.13;9.50;;;;;;;0.33;81.93;104103.69;5030472;28;20108;-56
2022/03/18 06:26:36;;;;;;;20.40;10.53;;;;;;;0.34;81.69;104109.78;5029836;28;20039;-54
2022/03/18 06:29:03;;;;;;;24.83;10.03;;;;;;;0.34;81.32;104120.22;5031437;28;20392;-55
2022/03/18 06:31:28;;;;;;;22.00;9.37;;;;;;;0.43;81.76;104119.28;5029982;28;20415;-54
2022/03/18 06:33:54;;;;;;;23.00;9.97;;;;;;;0.44;81.45;104115.78;5030879;28;20064;-55
2022/03/18 06:36:19;;;;;;;20.60;9.93;;;;;;;0.48;81.47;104117.47;5026536;28;20084;-55
2022/03/18 06:38:44;;;;;;;19.73;9.90;;;;;;;0.47;81.46;104105.28;5025153;28;20044;-55
2022/03/18 06:41:10;;;;;;;18.57;10.27;;;;;;;0.51;81.95;104110.50;5028769;28;20065;-56
2022/03/18 06:43:35;;;;;;;21.43;10.57;;;;;;;0.59;82.07;104115.63;5022542;28;20033;-55
2022/03/18 06:46:02;;;;;;;21.43;10.87;;;;;;;0.64;81.68;104119.06;5033675;28;20026;-55
2022/03/18 06:48:27;;;;;;;25.50;11.13;;;;;;;0.72;82.07;104125.94;5024171;28;20029;-55
2022/03/18 06:50:52;;;;;;;23.90;11.63;;;;;;;0.79;82.78;104127.63;5020355;28;20561;-57
2022/03/18 06:53:17;;;;;;;21.40;11.70;;;;;;;0.84;82.06;104140.66;5030990;28;20468;-58
2022/03/18 06:55:43;;;;;;;23.20;10.50;;;;;;;0.84;81.90;104133.66;5036061;28;20033;-57
2022/03/18 06:58:08;;;;;;;21.67;11.00;;;;;;;0.89;82.21;104139.72;5031090;28;20040;-58
2022/03/18 07:00:35;;;;;;;23.30;10.87;;;;;;;0.95;82.59;104144.03;5025813;28;20032;-57
2022/03/18 07:03:01;;;;;;;24.80;11.50;;;;;;;1.02;82.83;104143.06;5029655;28;20033;-58
2022/03/18 07:05:27;;;;;;;22.87;11.90;;;;;;;1.11;83.06;104144.72;5029279;28;20033;-57
2022/03/18 07:07:52;;;;;;;22.57;11.77;;;;;;;1.23;82.65;104142.84;5029514;28;20057;-58
2022/03/18 07:10:18;;;;;;;27.23;12.33;;;;;;;1.32;82.67;104147.94;5028927;28;20073;-58
2022/03/18 07:12:43;;;;;;;24.73;11.63;;;;;;;1.41;82.50;104150.47;5031150;28;20027;-57
2022/03/18 07:15:08;;;;;;;21.90;12.50;;;;;;;1.53;83.20;104154.66;5031075;28;20048;-57
2022/03/18 07:17:59;;;;;;;25.30;12.17;;;;;;;1.61;83.18;104146.72;5027299;28;20048;-57
2022/03/18 07:20:22;;;;;;;27.40;12.47;;;;;;;1.72;82.95;104152.66;5029059;28;20120;-58
2022/03/18 07:23:05;;;;;;;26.97;12.57;;;;;;;1.86;82.82;104154.22;5026548;28;20034;-58
2022/03/18 07:25:31;;;;;;;28.23;12.87;;;;;;;1.99;83.00;104157.53;5024083;28;20044;-57
2022/03/18 07:27:56;;;;;;;25.20;12.10;;;;;;;2.08;82.54;104159.16;5030472;28;20450;-58
2022/03/18 07:30:22;;;;;;;28.73;13.77;;;;;;;2.20;83.32;104158.97;5030188;28;20120;-57
2022/03/18 07:32:48;;;;;;;26.30;13.50;;;;;;;2.32;83.10;104154.41;5030395;28;20032;-57
2022/03/18 07:35:14;;;;;;;22.93;12.70;;;;;;;2.39;82.43;104158.66;5033939;28;20116;-57
2022/03/18 07:37:39;;;;;;;28.97;12.70;;;;;;;2.50;82.64;104164.59;5028973;28;20068;-57
2022/03/18 07:40:06;;;;;;;29.17;12.60;;;;;;;2.69;83.06;104161.66;5032536;28;20030;-57
2022/03/18 07:42:46;;;;;;;28.87;14.03;;;;;;;2.82;84.85;104170.16;5032993;28;20040;-57
2022/03/18 07:45:16;;;;;;;30.10;13.70;;;;;;;2.94;83.92;104177.81;5033149;28;20522;-57
2022/03/18 07:47:41;;;;;;;29.20;13.80;;;;;;;3.08;84.25;104192.41;5032105;28;20096;-58
2022/03/18 07:50:06;;;;;;;26.57;13.47;;;;;;;3.19;84.19;104192.19;5034263;28;20373;-58
2022/03/18 07:52:32;;;;;;;32.13;14.43;;;;;;;3.31;84.12;104197.19;5034045;28;20041;-58
2022/03/18 07:54:57;;;;;;;26.80;13.63;;;;;;;3.39;83.85;104202.31;5034581;28;20033;-57
2022/03/18 07:57:22;;;;;;;24.13;12.27;;;;;;;3.51;82.46;104198.59;5032214;28;20030;-57
2022/03/18 07:59:48;;;;;;;30.43;12.70;;;;;;;3.58;82.52;104200.19;5031947;28;20460;-58
2022/03/18 08:02:13;;;;;;;25.47;12.20;;;;;;;3.67;82.41;104204.38;5030376;28;20045;-58
2022/03/18 08:04:38;;;;;;;28.20;13.00;;;;;;;3.77;81.99;104205.88;5032100;28;20384;-58
2022/03/18 08:07:04;;;;;;;26.57;12.53;;;;;;;3.87;82.25;104206.56;5034155;28;20072;-58
2022/03/18 08:09:30;;;;;;;29.37;12.30;;;;;;;3.92;82.04;104209.09;5031248;28;20381;-57
2022/03/18 08:11:56;;;;;;;29.17;12.13;;;;;;;4.04;81.59;104215.81;5033370;28;20038;-58
2022/03/18 08:14:23;;;;;;;23.93;11.93;;;;;;;4.13;81.73;104214.72;5031652;28;20120;-57
2022/03/18 08:16:49;;;;;;;22.90;11.67;;;;;;;4.21;80.87;104209.31;5030107;28;20092;-58
2022/03/18 08:19:14;;;;;;;22.33;11.93;;;;;;;4.34;81.20;104216.00;5023808;28;20033;-58
2022/03/18 08:21:40;;;;;;;25.33;11.50;;;;;;;4.41;81.22;104220.22;5026207;28;20099;-58
2022/03/18 08:24:06;;;;;;;23.37;11.73;;;;;;;4.52;81.16;104224.34;5024422;28;20041;-58
2022/03/18 08:26:34;;;;;;;22.65;11.07;;;;;;;4.59;80.47;104220.66;5032479;28;20033;-59
2022/03/18 08:28:59;;;;;;;24.80;10.63;;;;;;;4.69;80.16;104216.91;5030421;28;20025;-60
2022/03/18 08:31:24;;;;;;;22.63;10.35;;;;;;;4.81;79.62;104215.72;5032471;28;20034;-59
2022/03/18 08:33:49;;;;;;;23.80;9.17;;;;;;;4.95;78.61;104223.22;5033118;28;20037;-59
2022/03/18 08:36:14;;;;;;;20.73;9.02;;;;;;;5.06;77.67;104238.75;5032868;28;20103;-60
2022/03/18 08:38:40;;;;;;;20.70;8.90;;;;;;;5.20;77.15;104238.38;5015123;28;20516;-59
2022/03/18 08:41:05;;;;;;;25.10;9.73;;;;;;;5.33;77.03;104232.78;5032877;28;20025;-60
2022/03/18 08:43:31;;;;;;;22.45;9.40;;;;;;;5.45;76.77;104231.56;5030488;28;20113;-59
2022/03/18 08:45:56;;;;;;;24.40;9.40;;;;;;;5.57;75.88;104246.16;5032174;28;20025;-59
2022/03/18 08:48:22;;;;;;;19.13;9.18;;;;;;;5.60;75.40;104246.06;5031283;28;20476;-61
2022/03/18 08:50:47;;;;;;;21.13;9.35;;;;;;;5.75;75.77;104252.66;5029714;28;20099;-60
2022/03/18 08:53:13;;;;;;;21.88;8.75;;;;;;;5.79;75.06;104257.78;5022404;28;20470;-59
2022/03/18 08:55:40;;;;;;;19.27;9.18;;;;;;;5.85;74.43;104261.13;5031542;28;20029;-60
2022/03/18 08:58:07;;;;;;;18.77;7.38;;;;;;;6.01;71.59;104272.06;5032751;28;20110;-58
2022/03/18 09:00:33;;;;;;;19.23;8.05;;;;;;;6.01;71.15;104267.69;5034763;28;20119;-60
2022/03/18 09:02:58;;;;;;;15.45;7.40;;;;;;;6.10;72.19;104265.69;5031712;28;20033;-59
2022/03/18 09:05:23;;;;;;;15.57;6.60;;;;;;;6.14;70.69;104264.69;5030643;28;20381;-60
2022/03/18 09:07:48;;;;;;;17.98;7.43;;;;;;;6.22;71.78;104275.84;5030164;28;20025;-60
2022/03/18 09:10:14;;;;;;;16.33;6.80;;;;;;;6.36;70.14;104282.50;5028854;28;20116;-58
2022/03/18 09:12:46;;;;;;;20.73;7.40;;;;;;;6.46;69.86;104283.91;5032158;28;20036;-57
2022/03/18 09:15:11;;;;;;;16.65;6.80;;;;;;;6.53;69.19;104280.19;5032497;28;20116;-59
2022/03/18 09:17:37;;;;;;;18.05;7.47;;;;;;;6.58;69.46;104282.66;5030505;28;20196;-58
2022/03/18 09:20:02;;;;;;;13.88;6.45;;;;;;;6.64;69.26;104292.13;5025021;28;20492;-59
2022/03/18 09:22:28;;;;;;;14.55;6.68;;;;;;;6.72;67.94;104284.84;5025793;28;20034;-59
2022/03/18 09:24:53;;;;;;;17.17;7.45;;;;;;;6.72;68.82;104287.50;5040691;28;20486;-58
2022/03/18 09:27:18;;;;;;;14.70;6.70;;;;;;;6.75;67.07;104287.38;5025283;28;20083;-59
2022/03/18 09:29:43;;;;;;;17.92;6.97;;;;;;;6.86;67.07;104298.44;5026126;28;20126;-57
2022/03/18 09:32:09;;;;;;;17.00;6.90;;;;;;;6.97;66.35;104294.56;5026281;28;20465;-58
2022/03/18 09:34:35;;;;;;;15.18;7.00;;;;;;;7.05;66.95;104295.16;5029368;28;20044;-58
2022/03/18 09:37:01;;;;;;;13.52;6.68;;;;;;;7.18;66.88;104302.66;5030385;28;20025;-57
2022/03/18 09:39:29;;;;;;;16.45;6.38;;;;;;;7.29;65.96;104297.03;5029025;28;20497;-57
2022/03/18 09:41:55;;;;;;;15.93;6.70;;;;;;;7.36;65.12;104302.00;5031933;28;20033;-57
2022/03/18 09:44:20;;;;;;;16.58;5.75;;;;;;;7.40;63.28;104293.06;5029870;28;20533;-57
2022/03/18 09:46:47;;;;;;;11.90;5.72;;;;;;;7.48;62.60;104299.84;5031615;28;20032;-57
2022/03/18 09:49:14;;;;;;;13.98;5.70;;;;;;;7.54;63.51;104297.84;5032035;28;20026;-57
2022/03/18 09:51:42;;;;;;;12.50;5.10;;;;;;;7.63;59.13;104295.78;5032143;28;20052;-56
2022/03/18 09:54:08;;;;;;;11.73;4.85;;;;;;;7.71;58.39;104292.88;5032236;28;20053;-57
2022/03/18 09:56:34;;;;;;;12.43;4.60;;;;;;;7.81;58.88;104303.03;5024623;28;20025;-57
2022/03/18 09:59:00;;;;;;;9.52;4.53;;;;;;;7.84;59.01;104307.34;5031405;28;20875;-56
2022/03/18 10:01:25;;;;;;;11.60;4.30;;;;;;;7.96;57.45;104302.50;5031073;28;20105;-56
2022/03/18 10:03:50;;;;;;;12.30;4.70;;;;;;;8.04;56.33;104308.38;5032030;28;20061;-56
2022/03/18 10:06:16;;;;;;;11.23;4.93;;;;;;;8.10;59.67;104318.72;5031425;28;20656;-57
2022/03/18 10:08:42;;;;;;;11.43;4.65;;;;;;;8.20;58.45;104319.22;5028658;28;20461;-57
2022/03/18 10:11:30;;;;;;;11.85;4.70;;;;;;;8.18;58.63;104313.97;5030978;28;20453;-56
2022/03/18 10:14:16;;;;;;;10.65;4.70;;;;;;;8.27;57.29;104317.19;5031562;28;20037;-57
2022/03/18 10:16:46;;;;;;;10.38;4.47;;;;;;;8.27;57.61;104317.19;5031793;28;20087;-57
2022/03/18 10:19:16;;;;;;;16.95;5.47;;;;;;;8.39;57.82;104324.63;5031422;28;20033;-57
2022/03/18 10:22:10;;;;;;;13.50;5.05;;;;;;;8.47;59.35;104325.22;5031185;28;20052;-56
2022/03/18 10:24:37;;;;;;;10.73;4.43;;;;;;;8.55;56.08;104317.00;5029185;28;20045;-58
2022/03/18 10:27:20;;;;;;;10.95;4.53;;;;;;;8.59;58.16;104313.28;5029748;28;20053;-57
2022/03/18 10:29:47;;;;;;;14.38;4.65;;;;;;;8.68;56.91;104306.75;5030728;28;20531;-57
2022/03/18 10:32:14;;;;;;;10.45;4.82;;;;;;;8.78;56.50;104306.38;5030125;28;20033;-57
2022/03/18 10:37:40;;;;;;;10.27;3.88;;;;;;;8.98;56.44;104316.97;5026234;28;20036;-57
2022/03/18 10:40:05;;;;;;;11.48;3.70;;;;;;;9.05;54.17;104322.03;5022017;28;20033;-56
2022/03/18 10:42:31;;;;;;;11.00;3.78;;;;;;;9.06;54.28;104315.78;5031094;28;20115;-56
2022/03/18 10:44:59;;;;;;;8.85;3.47;;;;;;;9.08;54.03;104316.59;5030118;28;20029;-56
2022/03/18 10:47:41;;;;;;;7.93;3.60;;;;;;;9.12;55.86;104312.88;5030902;28;20052;-57
2022/03/18 10:50:29;;;;;;;10.60;3.73;;;;;;;9.17;55.78;104310.91;5031180;28;20029;-56
2022/03/18 10:52:58;;;;;;;9.57;3.65;;;;;;;9.35;54.86;104319.84;5018039;28;20055;-57
2022/03/18 10:55:26;;;;;;;11.40;3.50;;;;;;;9.33;53.13;104315.53;5030284;28;20112;-57
2022/03/18 10:57:59;;;;;;;13.45;3.92;;;;;;;9.39;52.58;104315.28;5023275;28;20450;-56
2022/03/18 11:00:27;;;;;;;7.55;3.63;;;;;;;9.46;53.79;104316.72;5030595;28;20080;-57
2022/03/18 11:02:58;;;;;;;9.63;3.78;;;;;;;9.51;51.25;104320.03;5029600;28;20121;-57
2022/03/18 11:05:23;;;;;;;6.85;3.50;;;;;;;9.52;51.15;104319.09;5031067;28;20034;-57
2022/03/18 11:07:52;;;;;;;10.38;3.63;;;;;;;9.60;52.05;104312.56;5031398;28;20044;-57
2022/03/18 11:13:06;;;;;;;11.10;3.90;;;;;;;9.71;51.78;104305.00;5034738;28;20048;-57
2022/03/18 11:15:33;;;;;;;9.93;4.10;;;;;;;9.80;51.00;104312.53;5034431;28;20036;-57
2022/03/18 11:18:03;;;;;;;10.05;3.90;;;;;;;9.88;52.16;104300.72;5032469;28;20033;-57
2022/03/18 11:20:30;;;;;;;8.27;3.92;;;;;;;9.99;51.44;104301.09;5034525;28;20040;-57
2022/03/18 11:22:55;;;;;;;7.65;3.92;;;;;;;10.14;51.61;104296.84;5033468;28;20109;-57
2022/03/18 11:25:22;;;;;;;10.98;3.97;;;;;;;10.25;50.38;104304.28;5034599;28;20120;-57
2022/03/18 11:27:48;;;;;;;10.63;3.90;;;;;;;10.29;52.00;104297.03;5035000;28;20473;-57
2022/03/18 11:30:37;;;;;;;10.25;4.20;;;;;;;10.43;52.28;104310.53;5034715;28;20025;-57
2022/03/18 11:33:06;;;;;;;11.48;4.20;;;;;;;10.51;50.28;104309.28;5034256;28;20041;-58
2022/03/18 11:35:52;;;;;;;12.55;3.88;;;;;;;10.53;51.12;104308.28;5034706;28;20029;-56
2022/03/18 11:38:23;;;;;;;11.77;4.45;;;;;;;10.62;49.67;104313.13;5030121;28;20057;-56